createdAt,value
2022-09-04T00:01:45.031Z,19.30
2022-09-04T00:04:19.363Z,19.30
2022-09-04T00:07:10.587Z,19.30
2022-09-04T00:09:56.870Z,19.20
2022-09-04T00:12:34.868Z,19.10
2022-09-04T00:15:05.704Z,19.10
2022-09-04T00:17:53.283Z,19.10
2022-09-04T00:20:46.046Z,19.00
2022-09-04T00:24:12.806Z,19.10
2022-09-04T00:27:03.427Z,19.10
2022-09-04T00:30:12.580Z,19.00
2022-09-04T00:33:01.495Z,19.00
2022-09-04T00:35:32.873Z,19.10
2022-09-04T00:38:12.275Z,19.20
2022-09-04T00:40:47.823Z,19.30
2022-09-04T00:43:39.102Z,19.30
2022-09-04T00:46:33.125Z,19.30
2022-09-04T00:49:03.716Z,19.30
2022-09-04T00:51:50.218Z,19.30
2022-09-04T00:54:36.606Z,19.20
2022-09-04T00:57:41.703Z,19.10
2022-09-04T01:00:18.782Z,19.00
2022-09-04T01:03:11.418Z,18.80
2022-09-04T01:06:01.112Z,18.70
2022-09-04T01:08:46.249Z,18.60
2022-09-04T01:11:33.072Z,18.50
2022-09-04T01:14:20.787Z,18.50
2022-09-04T01:17:27.779Z,18.60
2022-09-04T01:20:13.550Z,18.50
2022-09-04T01:23:12.653Z,18.50
2022-09-04T01:25:59.031Z,18.40
2022-09-04T01:28:46.641Z,18.40
2022-09-04T01:31:55.366Z,18.50
2022-09-04T01:35:16.085Z,18.60
2022-09-04T01:37:51.572Z,18.60
2022-09-04T01:40:58.603Z,18.50
2022-09-04T01:43:26.506Z,18.40
2022-09-04T01:45:59.743Z,18.30
2022-09-04T01:48:38.272Z,18.30
2022-09-04T01:51:30.396Z,18.30
2022-09-04T01:54:35.384Z,18.30
2022-09-04T01:57:08.994Z,18.30
2022-09-04T01:59:53.025Z,18.40
2022-09-04T02:02:33.046Z,18.40
2022-09-04T02:05:08.476Z,18.40
2022-09-04T02:07:56.134Z,18.40
2022-09-04T02:11:09.168Z,18.40
2022-09-04T02:14:17.840Z,18.40
2022-09-04T02:17:20.557Z,18.30
2022-09-04T02:20:28.095Z,18.30
2022-09-04T02:23:14.144Z,18.30
2022-09-04T02:25:53.793Z,18.30
2022-09-04T02:28:21.552Z,18.30
2022-09-04T02:30:58.369Z,18.30
2022-09-04T02:34:12.726Z,18.30
2022-09-04T02:37:18.912Z,18.20
2022-09-04T02:40:06.814Z,18.10
2022-09-04T02:43:00.104Z,18.00
2022-09-04T02:45:48.937Z,18.10
2022-09-04T02:48:38.139Z,18.20
2022-09-04T02:51:45.715Z,18.20
2022-09-04T02:54:37.836Z,18.10
2022-09-04T02:57:38.341Z,18.10
2022-09-04T03:00:20.083Z,18.10
2022-09-04T03:03:13.444Z,18.00
2022-09-04T03:06:33.747Z,18.00
2022-09-04T03:09:06.477Z,17.90
2022-09-04T03:11:44.128Z,17.80
2022-09-04T03:14:17.995Z,17.80
2022-09-04T03:16:57.661Z,17.70
2022-09-04T03:19:55.222Z,17.70
2022-09-04T03:22:28.832Z,17.60
2022-09-04T03:25:12.114Z,17.60
2022-09-04T03:27:39.921Z,17.70
2022-09-04T03:30:12.353Z,17.70
2022-09-04T03:33:03.801Z,17.70
2022-09-04T03:36:00.661Z,17.70
2022-09-04T03:38:57.299Z,17.80
2022-09-04T03:41:56.169Z,17.70
2022-09-04T03:44:54.616Z,17.70
2022-09-04T03:47:28.281Z,17.60
2022-09-04T03:50:18.519Z,17.50
2022-09-04T03:53:16.138Z,17.50
2022-09-04T03:55:49.893Z,17.40
2022-09-04T03:58:49.664Z,17.40
2022-09-04T04:01:45.373Z,17.50
2022-09-04T04:04:52.222Z,17.60
2022-09-04T04:07:22.805Z,17.70
2022-09-04T04:10:33.540Z,17.80
2022-09-04T04:13:21.866Z,17.90
2022-09-04T04:15:55.015Z,17.90
2022-09-04T04:19:13.536Z,17.90
2022-09-04T04:22:29.178Z,17.90
2022-09-04T04:25:12.603Z,18.00
2022-09-04T04:27:40.243Z,17.90
2022-09-04T04:30:19.417Z,17.90
2022-09-04T04:32:59.583Z,17.90
2022-09-04T04:35:49.718Z,17.90
2022-09-04T04:38:54.149Z,17.80
2022-09-04T04:42:00.864Z,17.70
2022-09-04T04:45:13.626Z,17.80
2022-09-04T04:48:08.161Z,17.80
2022-09-04T04:51:08.865Z,17.90
2022-09-04T04:53:51.190Z,17.80
2022-09-04T04:56:45.937Z,17.70
2022-09-04T04:59:41.878Z,17.70
2022-09-04T05:02:29.145Z,17.80
2022-09-04T05:05:22.420Z,17.80
2022-09-04T05:08:16.298Z,17.90
2022-09-04T05:10:50.991Z,17.90
2022-09-04T05:13:24.715Z,18.00
2022-09-04T05:16:18.971Z,18.00
2022-09-04T05:18:59.043Z,18.10
2022-09-04T05:21:39.644Z,18.10
2022-09-04T05:24:33.194Z,18.00
2022-09-04T05:27:03.769Z,18.10
2022-09-04T05:29:51.611Z,18.10
2022-09-04T05:32:54.900Z,18.20
2022-09-04T05:35:41.077Z,18.20
2022-09-04T05:38:48.560Z,18.30
2022-09-04T05:41:53.155Z,18.30
2022-09-04T05:44:54.978Z,18.30
2022-09-04T05:47:47.719Z,18.40
2022-09-04T05:50:32.227Z,18.40
2022-09-04T05:53:11.293Z,18.50
2022-09-04T05:55:41.725Z,18.30
2022-09-04T05:58:28.529Z,18.30
2022-09-04T06:01:13.654Z,18.30
2022-09-04T06:04:10.085Z,18.30
2022-09-04T06:07:07.986Z,18.30
2022-09-04T06:09:44.729Z,18.40
2022-09-04T06:12:45.377Z,18.50
2022-09-04T06:15:19.038Z,18.70
2022-09-04T06:18:03.504Z,18.80
2022-09-04T06:20:34.250Z,18.90
2022-09-04T06:23:16.655Z,18.90
2022-09-04T06:26:04.644Z,19.00
2022-09-04T06:28:44.675Z,19.00
2022-09-04T06:31:32.419Z,19.20
2022-09-04T06:34:38.407Z,19.40
2022-09-04T06:37:30.156Z,19.80
2022-09-04T06:40:21.779Z,20.10
2022-09-04T06:42:49.627Z,20.20
2022-09-04T06:45:22.757Z,20.30
2022-09-04T06:47:56.382Z,20.30
2022-09-04T06:51:08.949Z,20.30
2022-09-04T06:54:02.893Z,20.30
2022-09-04T06:56:45.786Z,20.30
2022-09-04T06:59:22.542Z,20.50
2022-09-04T07:02:00.391Z,20.80
2022-09-04T07:04:55.785Z,20.80
2022-09-04T07:08:01.051Z,20.60
2022-09-04T07:10:36.711Z,20.50
2022-09-04T07:13:45.729Z,20.30
2022-09-04T07:16:33.272Z,20.30
2022-09-04T07:19:43.176Z,20.40
2022-09-04T07:22:30.260Z,20.50
2022-09-04T07:25:03.932Z,20.50
2022-09-04T07:27:51.170Z,20.50
2022-09-04T07:30:20.360Z,20.60
2022-09-04T07:33:04.456Z,20.70
2022-09-04T07:35:50.644Z,20.80
2022-09-04T07:38:50.555Z,20.90
2022-09-04T07:41:56.101Z,21.00
2022-09-04T07:44:52.133Z,21.00
2022-09-04T07:47:38.762Z,21.10
2022-09-04T07:50:23.482Z,21.20
2022-09-04T07:53:23.346Z,21.20
2022-09-04T07:55:58.611Z,21.20
2022-09-04T07:58:32.339Z,21.30
2022-09-04T08:01:27.105Z,21.50
2022-09-04T08:04:12.896Z,21.60
2022-09-04T08:06:51.025Z,21.70
2022-09-04T08:09:34.182Z,21.90
2022-09-04T08:12:44.905Z,22.10
2022-09-04T08:15:22.550Z,22.10
2022-09-04T08:18:35.317Z,21.90
2022-09-04T08:21:06.326Z,21.90
2022-09-04T08:23:52.661Z,21.90
2022-09-04T08:26:33.047Z,22.00
2022-09-04T08:29:12.036Z,22.10
2022-09-04T08:31:44.097Z,22.00
2022-09-04T08:34:35.947Z,22.00
2022-09-04T08:37:24.420Z,22.20
2022-09-04T08:40:02.285Z,22.20
2022-09-04T08:42:55.244Z,22.30
2022-09-04T08:45:42.037Z,22.40
2022-09-04T08:48:25.956Z,22.40
2022-09-04T08:51:26.695Z,22.40
2022-09-04T08:54:07.548Z,22.40
2022-09-04T08:57:05.881Z,22.30
2022-09-04T08:59:59.602Z,22.20
2022-09-04T09:02:39.398Z,21.90
2022-09-04T09:05:30.766Z,21.80
2022-09-04T09:08:16.701Z,21.80
2022-09-04T09:11:12.241Z,21.70
2022-09-04T09:14:02.218Z,21.60
2022-09-04T09:17:06.927Z,21.50
2022-09-04T09:20:14.850Z,21.50
2022-09-04T09:23:20.934Z,21.40
2022-09-04T09:26:11.682Z,21.30
2022-09-04T09:29:20.164Z,21.20
2022-09-04T09:32:05.334Z,20.90
2022-09-04T09:35:09.956Z,20.70
2022-09-04T09:38:14.356Z,20.70
2022-09-04T09:40:48.118Z,20.50
2022-09-04T09:43:34.468Z,20.60
2022-09-04T09:46:36.518Z,20.60
2022-09-04T09:49:21.974Z,20.50
2022-09-04T09:52:28.930Z,20.60
2022-09-04T09:55:35.180Z,20.70
2022-09-04T09:58:30.128Z,20.40
2022-09-04T10:01:08.577Z,20.00
2022-09-04T10:03:39.718Z,19.90
2022-09-04T10:06:13.517Z,19.90
2022-09-04T10:09:05.003Z,20.00
2022-09-04T10:12:01.065Z,20.10
2022-09-04T10:14:54.618Z,20.10
2022-09-04T10:17:28.597Z,20.00
2022-09-04T10:20:14.916Z,20.00
2022-09-04T10:23:04.135Z,19.90
2022-09-04T10:25:50.414Z,19.80
2022-09-04T10:28:47.610Z,19.70
2022-09-04T10:31:27.610Z,19.70
2022-09-04T10:34:31.137Z,19.60
2022-09-04T10:37:19.410Z,19.50
2022-09-04T10:40:26.857Z,19.60
2022-09-04T10:43:25.863Z,19.50
2022-09-04T10:46:22.796Z,19.40
2022-09-04T10:49:28.199Z,19.40
2022-09-04T10:52:14.117Z,19.60
2022-09-04T10:54:59.775Z,19.70
2022-09-04T10:57:51.380Z,19.70
2022-09-04T11:00:26.438Z,19.50
2022-09-04T11:03:27.940Z,19.50
2022-09-04T11:06:16.942Z,19.60
2022-09-04T11:09:08.286Z,19.50
2022-09-04T11:12:07.401Z,19.60
2022-09-04T11:14:35.245Z,19.80
2022-09-04T11:17:11.592Z,19.80
2022-09-04T11:19:58.427Z,19.70
2022-09-04T11:27:10.141Z,19.80
2022-09-04T11:29:59.334Z,19.90
2022-09-04T11:33:02.590Z,19.90
2022-09-04T11:35:44.140Z,20.00
2022-09-04T11:38:56.474Z,20.10
2022-09-04T11:41:50.915Z,20.20
2022-09-04T11:44:22.312Z,20.30
2022-09-04T11:47:12.176Z,20.30
2022-09-04T11:50:03.805Z,20.30
2022-09-04T11:53:12.864Z,20.50
2022-09-04T11:55:58.677Z,20.70
2022-09-04T11:58:40.579Z,21.10
2022-09-04T12:01:27.898Z,21.20
2022-09-04T12:04:01.729Z,21.20
2022-09-04T12:06:38.008Z,21.20
2022-09-04T12:09:20.119Z,21.50
2022-09-04T12:12:12.676Z,21.60
2022-09-04T12:14:49.524Z,21.80
2022-09-04T12:17:57.639Z,21.90
2022-09-04T12:20:45.671Z,22.00
2022-09-04T12:23:57.317Z,22.20
2022-09-04T12:26:40.251Z,22.60
2022-09-04T12:29:46.232Z,22.90
2022-09-04T12:32:31.993Z,22.70
2022-09-04T12:35:20.745Z,22.80
2022-09-04T12:38:13.176Z,23.20
2022-09-04T12:40:47.070Z,23.30
2022-09-04T12:43:31.018Z,23.40
2022-09-04T12:46:15.186Z,23.50
2022-09-04T12:49:02.081Z,23.60
2022-09-04T12:51:43.711Z,23.80
2022-09-04T12:54:15.156Z,23.90
2022-09-04T12:57:11.735Z,24.20
2022-09-04T13:00:05.973Z,24.30
2022-09-04T13:02:50.623Z,24.40
2022-09-04T13:05:52.890Z,24.50
2022-09-04T13:09:00.059Z,24.60
2022-09-04T13:11:57.231Z,24.60
2022-09-04T13:14:35.550Z,24.70
2022-09-04T13:17:20.778Z,24.80
2022-09-04T13:20:16.532Z,25.00
2022-09-04T13:23:21.057Z,24.90
2022-09-04T13:26:24.646Z,24.80
2022-09-04T13:29:03.915Z,24.90
2022-09-04T13:31:54.830Z,25.10
2022-09-04T13:34:56.898Z,25.10
2022-09-04T13:37:46.064Z,25.10
2022-09-04T13:40:32.407Z,24.90
2022-09-04T13:43:24.771Z,24.90
2022-09-04T13:46:00.378Z,24.90
2022-09-04T13:48:44.757Z,24.90
2022-09-04T13:51:29.794Z,24.80
2022-09-04T13:54:08.045Z,25.00
2022-09-04T13:57:13.366Z,24.90
2022-09-04T13:59:44.416Z,25.00
2022-09-04T14:02:14.835Z,25.10
2022-09-04T14:04:48.006Z,25.10
2022-09-04T14:07:26.831Z,25.00
2022-09-04T14:09:58.310Z,24.90
2022-09-04T14:12:54.246Z,25.00
2022-09-04T14:16:01.856Z,25.40
2022-09-04T14:19:03.446Z,25.60
2022-09-04T14:22:02.507Z,25.70
2022-09-04T14:24:47.713Z,25.70
2022-09-04T14:27:33.427Z,25.50
2022-09-04T14:30:04.001Z,25.10
2022-09-04T14:32:46.885Z,25.10
2022-09-04T14:35:47.074Z,25.30
2022-09-04T14:38:37.965Z,25.20
2022-09-04T14:41:47.673Z,25.10
2022-09-04T14:44:35.760Z,25.20
2022-09-04T14:47:27.452Z,25.40
2022-09-04T14:49:56.774Z,25.50
2022-09-04T14:52:54.141Z,25.50
2022-09-04T14:55:32.291Z,25.30
2022-09-04T14:58:19.547Z,25.10
2022-09-04T15:00:57.289Z,25.10
2022-09-04T15:03:35.045Z,25.20
2022-09-04T15:06:31.959Z,25.40
2022-09-04T15:09:21.843Z,25.30
2022-09-04T15:12:20.851Z,25.50
2022-09-04T15:14:50.355Z,25.70
2022-09-04T15:17:28.775Z,25.60
2022-09-04T15:20:11.505Z,25.40
2022-09-04T15:22:47.950Z,25.60
2022-09-04T15:25:18.664Z,25.80
2022-09-04T15:28:03.657Z,25.80
2022-09-04T15:30:41.509Z,25.40
2022-09-04T15:33:18.174Z,25.40
2022-09-04T15:36:00.255Z,25.40
2022-09-04T15:38:28.468Z,25.40
2022-09-04T15:41:16.231Z,25.50
2022-09-04T15:43:55.780Z,25.60
2022-09-04T15:47:00.779Z,25.60
2022-09-04T15:49:54.085Z,25.60
2022-09-04T15:52:40.341Z,25.60
2022-09-04T15:55:10.981Z,25.60
2022-09-04T15:57:48.703Z,25.20
2022-09-04T16:00:23.069Z,25.20
2022-09-04T16:03:12.116Z,25.30
2022-09-04T16:06:09.624Z,25.30
2022-09-04T16:08:52.874Z,25.20
2022-09-04T16:11:31.602Z,25.20
2022-09-04T16:14:08.360Z,25.10
2022-09-04T16:16:48.656Z,25.20
2022-09-04T16:19:44.772Z,25.20
2022-09-04T16:22:26.079Z,25.20
2022-09-04T16:25:11.096Z,25.20
2022-09-04T16:27:48.996Z,25.10
2022-09-04T16:30:55.987Z,25.10
2022-09-04T16:33:34.998Z,25.00
2022-09-04T16:36:06.183Z,25.00
2022-09-04T16:38:47.500Z,24.80
2022-09-04T16:41:26.950Z,24.80
2022-09-04T16:44:47.475Z,24.80
2022-09-04T16:47:43.957Z,24.80
2022-09-04T16:50:38.945Z,24.70
2022-09-04T16:53:27.409Z,24.60
2022-09-04T16:56:07.379Z,24.50
2022-09-04T16:58:54.725Z,24.50
2022-09-04T17:01:42.626Z,24.40
2022-09-04T17:04:19.629Z,24.30
2022-09-04T17:07:11.050Z,24.20
2022-09-04T17:10:08.249Z,24.00
2022-09-04T17:12:48.715Z,23.90
2022-09-04T17:15:31.258Z,23.70
2022-09-04T17:18:01.169Z,23.70
2022-09-04T17:21:46.048Z,23.70
2022-09-04T17:28:32.766Z,23.50
2022-09-04T17:29:13.159Z,23.50
2022-09-04T17:29:53.273Z,23.30
2022-09-04T17:35:35.410Z,23.10
2022-09-04T17:40:36.394Z,22.90
2022-09-04T17:40:51.296Z,22.80
2022-09-04T17:42:08.445Z,22.70
2022-09-04T17:44:56.780Z,22.60
2022-09-04T17:47:34.412Z,22.60
2022-09-04T17:50:08.267Z,22.50
2022-09-04T17:53:51.255Z,22.40
2022-09-04T17:57:05.176Z,22.30
2022-09-04T17:59:51.598Z,22.20
2022-09-04T18:02:42.838Z,22.10
2022-09-04T18:05:23.203Z,22.00
2022-09-04T18:08:09.928Z,21.90
2022-09-04T18:11:12.133Z,21.80
2022-09-04T18:13:42.593Z,21.60
2022-09-04T18:16:16.311Z,21.50
2022-09-04T18:18:55.550Z,21.40
2022-09-04T18:21:36.644Z,21.40
2022-09-04T18:24:16.223Z,21.40
2022-09-04T18:27:06.249Z,21.30
2022-09-04T18:32:27.011Z,21.30
2022-09-04T18:37:18.216Z,21.10
2022-09-04T18:37:20.963Z,21.10
2022-09-04T18:39:09.192Z,21.00
2022-09-04T18:49:14.179Z,21.10
2022-09-04T18:50:31.761Z,21.00
2022-09-04T18:50:33.812Z,21.10
2022-09-04T18:51:36.700Z,20.90
2022-09-04T18:54:20.078Z,20.90
2022-09-04T18:56:50.168Z,21.00
2022-09-04T18:59:18.749Z,21.00
2022-09-04T19:02:04.317Z,20.80
2022-09-04T19:04:52.978Z,20.70
2022-09-04T19:07:32.480Z,20.70
2022-09-04T19:10:18.099Z,20.70
2022-09-04T19:12:48.749Z,20.70
2022-09-04T19:15:36.604Z,20.80
2022-09-04T19:18:13.091Z,20.70
2022-09-04T19:20:53.052Z,20.60
2022-09-04T19:23:44.628Z,20.70
2022-09-04T19:26:38.927Z,20.80
2022-09-04T19:29:22.148Z,21.00
2022-09-04T19:31:57.897Z,21.10
2022-09-04T19:34:52.906Z,21.20
2022-09-04T19:38:35.692Z,21.10
2022-09-04T19:46:06.361Z,21.00
2022-09-04T19:46:07.639Z,20.90
2022-09-04T19:46:27.799Z,20.70
2022-09-04T19:53:17.465Z,20.60
2022-09-04T19:53:24.088Z,20.50
2022-09-04T19:55:25.079Z,20.50
2022-09-04T19:58:22.028Z,20.40
2022-09-04T20:00:59.430Z,20.50
2022-09-04T20:04:11.050Z,20.50
2022-09-04T20:06:48.190Z,20.40
2022-09-04T20:09:30.878Z,20.30
2022-09-04T20:12:13.934Z,20.30
2022-09-04T20:14:55.058Z,20.20
2022-09-04T20:17:47.402Z,20.20
2022-09-04T20:20:29.132Z,20.20
2022-09-04T20:23:35.248Z,20.20
2022-09-04T20:26:25.689Z,20.10
2022-09-04T20:28:58.695Z,20.10
2022-09-04T20:31:36.491Z,20.10
2022-09-04T20:34:09.625Z,20.10
2022-09-04T20:36:48.794Z,20.00
2022-09-04T20:39:43.958Z,19.90
2022-09-04T20:42:28.847Z,19.80
2022-09-04T20:46:58.472Z,19.70
2022-09-04T20:52:46.109Z,19.60
2022-09-04T20:52:50.064Z,19.70
2022-09-04T20:54:32.482Z,19.60
2022-09-04T21:03:05.490Z,19.70
2022-09-04T21:03:10.708Z,19.80
2022-09-04T21:03:34.954Z,19.80
2022-09-04T21:06:28.410Z,19.70
2022-09-04T21:09:15.194Z,19.70
2022-09-04T21:11:47.516Z,19.70
2022-09-04T21:14:45.567Z,19.70
2022-09-04T21:17:57.274Z,19.70
2022-09-04T21:20:51.877Z,19.60
2022-09-04T21:23:54.444Z,19.60
2022-09-04T21:26:45.338Z,19.60
2022-09-04T21:29:39.525Z,19.60
2022-09-04T21:32:26.153Z,19.50
2022-09-04T21:35:06.835Z,19.50
2022-09-04T21:37:40.742Z,19.40
2022-09-04T21:40:33.585Z,19.40
2022-09-04T21:43:19.392Z,19.20
2022-09-04T21:46:25.347Z,19.10
2022-09-04T21:49:07.746Z,19.00
2022-09-04T21:51:50.980Z,19.00
2022-09-04T21:54:37.894Z,19.00
2022-09-04T22:02:27.319Z,19.10
2022-09-04T22:02:43.810Z,19.30
2022-09-04T22:03:42.787Z,19.20
2022-09-04T22:06:49.452Z,19.20
2022-09-04T22:13:29.799Z,19.20
2022-09-04T22:13:37.848Z,19.20
2022-09-04T22:16:03.492Z,19.20
2022-09-04T22:18:37.164Z,19.10
2022-09-04T22:21:26.222Z,19.10
2022-09-04T22:24:28.091Z,19.00
2022-09-04T22:28:04.587Z,19.00
2022-09-04T22:30:24.271Z,18.90
2022-09-04T22:32:52.068Z,18.80
2022-09-04T22:35:44.669Z,18.70
2022-09-04T22:38:47.757Z,18.80
2022-09-04T22:41:46.095Z,18.80
2022-09-04T22:44:37.416Z,18.80
2022-09-04T22:47:34.810Z,18.80
2022-09-04T22:50:36.248Z,18.70
2022-09-04T22:53:39.125Z,18.70
2022-09-04T22:56:22.930Z,18.60
2022-09-04T22:58:52.767Z,18.60
2022-09-04T23:01:31.778Z,18.60
2022-09-04T23:04:18.118Z,18.70
2022-09-04T23:12:12.175Z,18.70
2022-09-04T23:13:56.344Z,18.50
2022-09-04T23:14:00.194Z,18.60
2022-09-04T23:16:49.510Z,18.50
2022-09-04T23:21:16.633Z,18.50
2022-09-04T23:26:33.753Z,18.50
2022-09-04T23:26:50.719Z,18.50
2022-09-04T23:29:40.962Z,18.50
2022-09-04T23:32:57.605Z,18.50
2022-09-04T23:36:01.877Z,18.50
2022-09-04T23:39:00.339Z,18.50
2022-09-04T23:41:53.054Z,18.60
2022-09-04T23:44:42.628Z,18.60
2022-09-04T23:47:10.477Z,18.50
2022-09-04T23:50:04.525Z,18.50
2022-09-04T23:52:47.760Z,18.40
2022-09-04T23:55:27.062Z,18.20
2022-09-04T23:59:00.977Z,18.00
